createdAt,value
2018-11-25T00:00:25.121Z,3.07
2018-11-25T00:02:52.820Z,3.09
2018-11-25T00:05:20.470Z,3.07
2018-11-25T00:07:48.180Z,3.11
2018-11-25T00:10:16.752Z,3.11
2018-11-25T00:12:44.519Z,3.11
2018-11-25T00:15:12.948Z,3.11
2018-11-25T00:17:42.345Z,3.12
2018-11-25T00:20:11.259Z,3.10
2018-11-25T00:22:38.934Z,3.11
2018-11-25T00:25:08.890Z,3.11
2018-11-25T00:27:39.319Z,3.10
2018-11-25T00:30:12.719Z,3.10
2018-11-25T00:32:40.767Z,3.08
2018-11-25T00:35:10.535Z,3.09
2018-11-25T00:37:38.239Z,3.11
2018-11-25T00:40:07.960Z,3.11
2018-11-25T00:42:35.574Z,3.11
2018-11-25T00:45:05.052Z,3.15
2018-11-25T00:47:33.288Z,3.12
2018-11-25T00:50:01.507Z,3.18
2018-11-25T00:52:34.238Z,3.20
2018-11-25T00:55:03.379Z,3.19
2018-11-25T00:57:32.642Z,3.23
2018-11-25T01:00:01.699Z,3.28
2018-11-25T01:02:30.452Z,3.31
2018-11-25T01:04:58.734Z,3.26
2018-11-25T01:07:27.904Z,3.29
2018-11-25T01:09:56.208Z,3.27
2018-11-25T01:12:24.932Z,3.23
2018-11-25T01:14:52.660Z,3.26
2018-11-25T01:17:20.234Z,3.30
2018-11-25T01:19:47.934Z,3.31
2018-11-25T01:22:15.515Z,3.32
2018-11-25T01:24:44.306Z,3.31
2018-11-25T01:27:12.003Z,3.29
2018-11-25T01:29:40.229Z,3.29
2018-11-25T01:32:07.923Z,3.27
2018-11-25T01:34:36.568Z,3.29
2018-11-25T01:37:07.817Z,3.26
2018-11-25T01:39:36.173Z,3.25
2018-11-25T01:42:05.105Z,3.24
2018-11-25T01:44:34.176Z,3.25
2018-11-25T01:47:02.346Z,3.26
2018-11-25T01:49:30.009Z,3.19
2018-11-25T01:51:57.623Z,3.13
2018-11-25T01:54:25.272Z,3.13
2018-11-25T01:56:53.592Z,3.10
2018-11-25T01:59:21.183Z,3.07
2018-11-25T02:01:48.741Z,3.02
2018-11-25T02:04:16.383Z,2.96
2018-11-25T02:06:44.009Z,2.91
2018-11-25T02:09:11.651Z,2.85
2018-11-25T02:11:39.215Z,2.84
2018-11-25T02:14:08.086Z,2.79
2018-11-25T02:16:35.775Z,2.80
2018-11-25T02:19:04.102Z,2.74
2018-11-25T02:21:32.664Z,2.69
2018-11-25T02:24:02.419Z,2.63
2018-11-25T02:26:31.725Z,2.58
2018-11-25T02:29:01.897Z,2.57
2018-11-25T02:31:33.771Z,2.55
2018-11-25T02:34:03.296Z,2.54
2018-11-25T02:36:30.945Z,2.53
2018-11-25T02:38:58.566Z,2.54
2018-11-25T02:41:26.242Z,2.47
2018-11-25T02:43:53.891Z,2.44
2018-11-25T02:46:21.475Z,2.40
2018-11-25T02:48:49.693Z,2.37
2018-11-25T02:51:17.378Z,2.28
2018-11-25T02:53:45.513Z,2.27
2018-11-25T02:56:13.705Z,2.27
2018-11-25T02:58:41.533Z,2.32
2018-11-25T03:01:09.885Z,2.36
2018-11-25T03:03:37.498Z,2.40
2018-11-25T03:06:06.260Z,2.45
2018-11-25T03:08:33.958Z,2.52
2018-11-25T03:11:01.628Z,2.54
2018-11-25T03:13:29.306Z,2.55
2018-11-25T03:15:57.952Z,2.63
2018-11-25T03:18:25.537Z,2.69
2018-11-25T03:20:53.220Z,2.72
2018-11-25T03:23:21.579Z,2.75
2018-11-25T03:25:49.981Z,2.79
2018-11-25T03:28:17.570Z,2.80
2018-11-25T03:30:45.204Z,2.87
2018-11-25T03:33:13.796Z,2.94
2018-11-25T03:35:41.500Z,2.96
2018-11-25T03:38:09.727Z,2.99
2018-11-25T03:40:37.813Z,2.99
2018-11-25T03:43:06.302Z,3.04
2018-11-25T03:45:33.950Z,3.05
2018-11-25T03:48:01.591Z,3.10
2018-11-25T03:50:29.869Z,3.10
2018-11-25T03:52:57.487Z,3.13
2018-11-25T03:55:25.051Z,3.15
2018-11-25T03:57:52.754Z,3.16
2018-11-25T04:00:21.455Z,3.21
2018-11-25T04:02:50.815Z,3.23
2018-11-25T04:05:17.784Z,3.26
2018-11-25T04:07:44.723Z,3.28
2018-11-25T04:10:12.740Z,3.31
2018-11-25T04:12:39.665Z,3.32
2018-11-25T04:15:08.735Z,3.32
2018-11-25T04:17:35.661Z,3.35
2018-11-25T04:20:02.615Z,3.35
2018-11-25T04:22:29.529Z,3.39
2018-11-25T04:24:56.461Z,3.39
2018-11-25T04:27:23.423Z,3.39
2018-11-25T04:29:50.365Z,3.41
2018-11-25T04:32:17.279Z,3.40
2018-11-25T04:34:44.186Z,3.41
2018-11-25T04:37:11.109Z,3.40
2018-11-25T04:39:38.029Z,3.40
2018-11-25T04:42:05.050Z,3.37
2018-11-25T04:44:31.958Z,3.30
2018-11-25T04:46:58.865Z,3.19
2018-11-25T04:49:25.761Z,3.05
2018-11-25T04:51:52.686Z,2.98
2018-11-25T04:54:19.724Z,2.88
2018-11-25T04:56:46.631Z,2.80
2018-11-25T04:59:13.529Z,2.77
2018-11-25T05:01:40.448Z,2.77
2018-11-25T05:04:07.365Z,2.74
2018-11-25T05:06:34.281Z,2.70
2018-11-25T05:09:01.205Z,2.66
2018-11-25T05:11:28.139Z,2.65
2018-11-25T05:13:55.029Z,2.61
2018-11-25T05:16:21.949Z,2.55
2018-11-25T05:18:48.854Z,2.52
2018-11-25T05:21:15.792Z,2.49
2018-11-25T05:23:42.693Z,2.44
2018-11-25T05:26:09.612Z,2.39
2018-11-25T05:28:36.543Z,2.35
2018-11-25T05:31:03.521Z,2.30
2018-11-25T05:33:30.470Z,2.26
2018-11-25T05:35:57.389Z,2.26
2018-11-25T05:38:24.308Z,2.28
2018-11-25T05:40:51.222Z,2.30
2018-11-25T05:43:18.141Z,2.33
2018-11-25T05:45:45.038Z,2.35
2018-11-25T05:48:11.963Z,2.42
2018-11-25T05:50:38.899Z,2.47
2018-11-25T05:53:05.812Z,2.54
2018-11-25T05:55:32.729Z,2.60
2018-11-25T05:57:59.649Z,2.61
2018-11-25T06:00:31.282Z,2.61
2018-11-25T06:02:58.220Z,2.61
2018-11-25T06:05:25.128Z,2.60
2018-11-25T06:07:52.066Z,2.63
2018-11-25T06:10:18.967Z,2.63
2018-11-25T06:12:52.664Z,2.61
2018-11-25T06:15:19.591Z,2.64
2018-11-25T06:17:46.538Z,2.63
2018-11-25T06:20:16.182Z,2.66
2018-11-25T06:22:43.254Z,2.71
2018-11-25T06:25:11.454Z,2.75
2018-11-25T06:27:38.616Z,2.79
2018-11-25T06:30:08.682Z,2.84
2018-11-25T06:32:35.608Z,2.88
2018-11-25T06:35:02.531Z,2.92
2018-11-25T06:37:29.445Z,2.96
2018-11-25T06:39:56.358Z,2.97
2018-11-25T06:42:23.269Z,3.02
2018-11-25T06:44:50.178Z,3.05
2018-11-25T06:47:17.105Z,3.11
2018-11-25T06:49:44.020Z,3.13
2018-11-25T06:52:10.947Z,3.19
2018-11-25T06:54:37.860Z,3.22
2018-11-25T06:57:04.808Z,3.27
2018-11-25T06:59:32.568Z,3.30
2018-11-25T07:01:59.446Z,3.32
2018-11-25T07:04:26.364Z,3.35
2018-11-25T07:06:53.277Z,3.38
2018-11-25T07:09:20.185Z,3.42
2018-11-25T07:11:47.094Z,3.44
2018-11-25T07:14:14.009Z,3.47
2018-11-25T07:16:40.913Z,3.51
2018-11-25T07:19:07.853Z,3.55
2018-11-25T07:21:34.768Z,3.60
2018-11-25T07:24:01.692Z,3.60
2018-11-25T07:26:28.633Z,3.63
2018-11-25T07:28:55.552Z,3.65
2018-11-25T07:31:22.455Z,3.66
2018-11-25T07:33:49.365Z,3.67
2018-11-25T07:36:16.266Z,3.68
2018-11-25T07:38:43.173Z,3.68
2018-11-25T07:41:10.081Z,3.68
2018-11-25T07:43:36.997Z,3.69
2018-11-25T07:46:04.221Z,3.69
2018-11-25T07:48:31.133Z,3.71
2018-11-25T07:50:58.030Z,3.71
2018-11-25T07:53:24.967Z,3.72
2018-11-25T07:55:51.869Z,3.67
2018-11-25T07:58:18.801Z,3.67
2018-11-25T08:00:45.703Z,3.72
2018-11-25T08:03:12.623Z,3.71
2018-11-25T08:05:39.529Z,3.72
2018-11-25T08:08:06.470Z,3.72
2018-11-25T08:10:33.386Z,3.72
2018-11-25T08:13:00.310Z,3.72
2018-11-25T08:15:27.246Z,3.71
2018-11-25T08:17:54.153Z,3.71
2018-11-25T08:20:21.578Z,3.71
2018-11-25T08:22:48.671Z,3.72
2018-11-25T08:25:17.365Z,3.74
2018-11-25T08:27:44.293Z,3.74
2018-11-25T08:30:15.366Z,3.75
2018-11-25T08:32:42.289Z,3.77
2018-11-25T08:35:09.753Z,3.78
2018-11-25T08:37:36.793Z,3.77
2018-11-25T08:40:07.034Z,3.77
2018-11-25T08:42:33.953Z,3.77
2018-11-25T08:45:00.866Z,3.77
2018-11-25T08:47:27.781Z,3.77
2018-11-25T08:49:54.703Z,3.77
2018-11-25T08:52:21.611Z,3.76
2018-11-25T08:54:48.518Z,3.77
2018-11-25T08:57:15.433Z,3.81
2018-11-25T08:59:42.381Z,3.82
2018-11-25T09:02:09.449Z,3.89
2018-11-25T09:04:36.582Z,3.92
2018-11-25T09:07:03.569Z,3.98
2018-11-25T09:09:30.813Z,4.01
2018-11-25T09:11:57.761Z,4.02
2018-11-25T09:14:24.742Z,4.02
2018-11-25T09:16:51.662Z,4.05
2018-11-25T09:19:18.581Z,4.05
2018-11-25T09:21:45.477Z,4.11
2018-11-25T09:24:12.432Z,4.14
2018-11-25T09:26:39.435Z,4.09
2018-11-25T09:29:06.504Z,4.08
2018-11-25T09:31:33.430Z,4.13
2018-11-25T09:34:00.334Z,4.11
2018-11-25T09:36:27.490Z,4.10
2018-11-25T09:38:54.386Z,4.12
2018-11-25T09:41:22.258Z,4.10
2018-11-25T09:43:50.640Z,4.11
2018-11-25T09:46:17.561Z,4.16
2018-11-25T09:48:44.689Z,4.19
2018-11-25T09:51:11.890Z,4.23
2018-11-25T09:53:38.802Z,4.22
2018-11-25T09:56:06.157Z,4.21
2018-11-25T09:58:33.045Z,4.19
2018-11-25T10:00:59.966Z,4.21
2018-11-25T10:03:27.079Z,4.21
2018-11-25T10:05:53.998Z,4.23
2018-11-25T10:08:20.921Z,4.26
2018-11-25T10:10:52.641Z,4.29
2018-11-25T10:13:14.966Z,4.33
2018-11-25T10:15:41.881Z,4.36
2018-11-25T10:18:08.793Z,4.38
2018-11-25T10:20:35.719Z,4.39
2018-11-25T10:23:02.679Z,4.40
2018-11-25T10:25:29.640Z,4.51
2018-11-25T10:27:56.596Z,4.57
2018-11-25T10:30:25.557Z,4.65
2018-11-25T10:32:54.555Z,4.79
2018-11-25T10:35:21.472Z,4.94
2018-11-25T10:37:48.381Z,5.11
2018-11-25T10:40:16.433Z,5.28
2018-11-25T10:42:43.455Z,5.25
2018-11-25T10:45:11.501Z,5.15
2018-11-25T10:47:38.573Z,5.04
2018-11-25T10:50:07.811Z,5.05
2018-11-25T10:52:34.713Z,4.99
2018-11-25T10:55:01.706Z,5.01
2018-11-25T10:57:28.649Z,4.92
2018-11-25T10:59:55.562Z,4.94
2018-11-25T11:02:28.272Z,4.91
2018-11-25T11:05:06.064Z,4.84
2018-11-25T11:07:39.654Z,4.81
2018-11-25T11:10:08.148Z,4.83
2018-11-25T11:12:35.133Z,4.85
2018-11-25T11:15:03.215Z,4.89
2018-11-25T11:17:30.611Z,4.88
2018-11-25T11:19:57.541Z,4.90
2018-11-25T11:22:24.451Z,4.93
2018-11-25T11:24:51.366Z,4.91
2018-11-25T11:27:18.316Z,4.93
2018-11-25T11:29:45.208Z,4.94
2018-11-25T11:32:12.121Z,4.88
2018-11-25T11:34:39.088Z,4.89
2018-11-25T11:37:06.047Z,4.95
2018-11-25T11:39:32.946Z,4.95
2018-11-25T11:41:59.874Z,4.97
2018-11-25T11:44:27.229Z,5.01
2018-11-25T11:46:54.143Z,4.98
2018-11-25T11:49:21.050Z,5.00
2018-11-25T11:51:47.982Z,5.06
2018-11-25T11:54:14.881Z,5.13
2018-11-25T11:56:41.787Z,5.16
2018-11-25T11:59:08.693Z,5.19
2018-11-25T12:01:36.199Z,5.23
2018-11-25T12:04:03.157Z,5.21
2018-11-25T12:06:30.090Z,5.22
2018-11-25T12:08:56.978Z,5.19
2018-11-25T12:11:23.889Z,5.28
2018-11-25T12:13:50.791Z,5.34
2018-11-25T12:16:17.709Z,5.42
2018-11-25T12:18:44.617Z,5.36
2018-11-25T12:21:11.520Z,5.35
2018-11-25T12:23:38.423Z,5.36
2018-11-25T12:26:05.384Z,5.33
2018-11-25T12:28:32.307Z,5.31
2018-11-25T12:30:59.408Z,5.28
2018-11-25T12:33:26.330Z,5.31
2018-11-25T12:35:53.226Z,5.32
2018-11-25T12:38:20.180Z,5.37
2018-11-25T12:40:47.092Z,5.42
2018-11-25T12:43:15.743Z,5.43
2018-11-25T12:45:42.690Z,5.40
2018-11-25T12:48:09.605Z,5.43
2018-11-25T12:50:36.539Z,5.43
2018-11-25T12:53:03.492Z,5.33
2018-11-25T12:55:30.390Z,5.30
2018-11-25T12:57:57.313Z,5.23
2018-11-25T13:00:31.691Z,5.24
2018-11-25T13:02:58.613Z,5.21
2018-11-25T13:05:25.570Z,5.26
2018-11-25T13:07:52.484Z,5.25
2018-11-25T13:10:19.398Z,5.28
2018-11-25T13:12:46.645Z,5.29
2018-11-25T13:15:13.590Z,5.29
2018-11-25T13:17:40.526Z,5.21
2018-11-25T13:20:11.245Z,5.24
2018-11-25T13:22:38.462Z,5.26
2018-11-25T13:25:06.941Z,5.24
2018-11-25T13:27:33.873Z,5.26
2018-11-25T13:30:08.957Z,5.25
2018-11-25T13:32:35.881Z,5.26
2018-11-25T13:35:03.283Z,5.27
2018-11-25T13:37:30.259Z,5.29
2018-11-25T13:39:57.207Z,5.28
2018-11-25T13:42:24.185Z,5.24
2018-11-25T13:44:50.210Z,5.27
2018-11-25T13:47:17.163Z,5.28
2018-11-25T13:49:44.113Z,5.26
2018-11-25T13:52:11.022Z,5.22
2018-11-25T13:54:37.995Z,5.22
2018-11-25T13:57:06.165Z,5.21
2018-11-25T14:00:38.662Z,5.16
2018-11-25T14:03:08.085Z,5.18
2018-11-25T14:05:35.038Z,5.19
2018-11-25T14:08:01.966Z,5.19
2018-11-25T14:10:30.823Z,5.19
2018-11-25T14:12:57.749Z,5.15
2018-11-25T14:15:25.197Z,5.11
2018-11-25T14:17:52.564Z,5.08
2018-11-25T14:20:19.477Z,5.03
2018-11-25T14:22:46.683Z,5.02
2018-11-25T14:25:15.381Z,5.05
2018-11-25T14:27:42.729Z,5.06
2018-11-25T14:30:13.458Z,5.08
2018-11-25T14:32:38.657Z,5.09
2018-11-25T14:35:07.777Z,5.08
2018-11-25T14:37:34.701Z,5.08
2018-11-25T14:40:01.596Z,5.05
2018-11-25T14:42:28.533Z,5.05
2018-11-25T14:44:55.456Z,5.02
2018-11-25T14:47:22.363Z,5.02
2018-11-25T14:49:49.305Z,5.01
2018-11-25T14:52:16.194Z,5.00
2018-11-25T14:54:51.018Z,5.02
2018-11-25T14:57:10.057Z,5.03
2018-11-25T14:59:36.973Z,5.01
2018-11-25T15:02:03.922Z,4.97
2018-11-25T15:04:36.040Z,4.98
2018-11-25T15:06:57.762Z,5.00
2018-11-25T15:09:24.672Z,4.98
2018-11-25T15:11:51.594Z,4.99
2018-11-25T15:14:18.521Z,4.95
2018-11-25T15:16:45.455Z,4.95
2018-11-25T15:19:12.365Z,4.96
2018-11-25T15:21:39.273Z,4.96
2018-11-25T15:24:06.221Z,4.95
2018-11-25T15:26:33.134Z,4.98
2018-11-25T15:29:00.061Z,4.95
2018-11-25T15:31:26.976Z,4.94
2018-11-25T15:33:53.890Z,4.91
2018-11-25T15:36:20.791Z,4.89
2018-11-25T15:38:47.714Z,4.87
2018-11-25T15:41:21.513Z,4.86
2018-11-25T15:43:48.417Z,4.84
2018-11-25T15:46:15.334Z,4.83
2018-11-25T15:48:42.270Z,4.84
2018-11-25T15:51:09.223Z,4.81
2018-11-25T15:53:36.158Z,4.83
2018-11-25T15:56:06.243Z,4.82
2018-11-25T15:58:33.190Z,4.76
2018-11-25T16:01:00.129Z,4.72
2018-11-25T16:03:28.009Z,4.73
2018-11-25T16:05:59.399Z,4.71
2018-11-25T16:08:26.350Z,4.71
2018-11-25T16:10:53.269Z,4.65
2018-11-25T16:13:20.214Z,4.65
2018-11-25T16:15:47.149Z,4.64
2018-11-25T16:18:14.053Z,4.63
2018-11-25T16:20:40.990Z,4.66
2018-11-25T16:23:09.112Z,4.63
2018-11-25T16:25:40.458Z,4.65
2018-11-25T16:28:13.449Z,4.59
2018-11-25T16:30:41.279Z,4.65
2018-11-25T16:33:08.189Z,4.64
2018-11-25T16:35:35.113Z,4.66
2018-11-25T16:38:02.020Z,4.64
2018-11-25T16:40:28.954Z,4.63
2018-11-25T16:42:55.865Z,4.61
2018-11-25T16:45:22.788Z,4.61
2018-11-25T16:47:49.697Z,4.61
2018-11-25T16:50:24.951Z,4.57
2018-11-25T16:52:44.261Z,4.54
2018-11-25T16:55:12.395Z,4.54
2018-11-25T16:57:39.419Z,4.51
2018-11-25T17:00:11.571Z,4.51
2018-11-25T17:02:38.498Z,4.50
2018-11-25T17:05:07.696Z,4.49
2018-11-25T17:07:34.604Z,4.46
2018-11-25T17:10:01.534Z,4.49
2018-11-25T17:12:28.435Z,4.44
2018-11-25T17:14:55.338Z,4.47
2018-11-25T17:17:22.258Z,4.48
2018-11-25T17:19:49.166Z,4.45
2018-11-25T17:22:16.690Z,4.43
2018-11-25T17:24:43.002Z,4.45
2018-11-25T17:27:09.930Z,4.46
2018-11-25T17:29:36.846Z,4.41
2018-11-25T17:32:04.018Z,4.42
2018-11-25T17:34:30.930Z,4.38
2018-11-25T17:36:57.897Z,4.40
2018-11-25T17:39:24.806Z,4.37
2018-11-25T17:41:51.728Z,4.34
2018-11-25T17:44:18.645Z,4.34
2018-11-25T17:46:45.569Z,4.32
2018-11-25T17:49:12.479Z,4.31
2018-11-25T17:51:39.402Z,4.31
2018-11-25T17:54:06.318Z,4.29
2018-11-25T17:56:33.233Z,4.28
2018-11-25T17:59:00.198Z,4.27
2018-11-25T18:01:27.126Z,4.25
2018-11-25T18:03:54.025Z,4.25
2018-11-25T18:06:21.067Z,4.25
2018-11-25T18:08:47.982Z,4.26
2018-11-25T18:11:14.918Z,4.24
2018-11-25T18:13:43.497Z,4.23
2018-11-25T18:16:12.731Z,4.20
2018-11-25T18:18:41.639Z,4.17
2018-11-25T18:21:10.542Z,4.11
2018-11-25T18:23:37.987Z,4.15
2018-11-25T18:26:05.174Z,4.12
2018-11-25T18:28:32.098Z,4.10
2018-11-25T18:30:59.046Z,4.09
2018-11-25T18:33:25.961Z,4.10
2018-11-25T18:35:52.904Z,4.06
2018-11-25T18:38:19.817Z,3.96
2018-11-25T18:40:46.721Z,3.93
2018-11-25T18:43:13.689Z,3.91
2018-11-25T18:45:40.613Z,3.87
2018-11-25T18:48:08.990Z,3.85
2018-11-25T18:50:35.902Z,3.78
2018-11-25T18:53:02.833Z,3.75
2018-11-25T18:55:28.865Z,3.71
2018-11-25T18:57:55.765Z,3.71
2018-11-25T19:00:26.107Z,3.66
2018-11-25T19:02:53.031Z,3.66
2018-11-25T19:05:19.953Z,3.65
2018-11-25T19:07:46.866Z,3.61
2018-11-25T19:10:16.018Z,3.56
2018-11-25T19:12:44.354Z,3.52
2018-11-25T19:15:11.141Z,3.56
2018-11-25T19:17:38.081Z,3.53
2018-11-25T19:20:17.773Z,3.52
2018-11-25T19:22:44.762Z,3.50
2018-11-25T19:25:15.735Z,3.52
2018-11-25T19:27:43.407Z,3.56
2018-11-25T19:30:14.071Z,3.52
2018-11-25T19:32:41.584Z,3.48
2018-11-25T19:35:10.479Z,3.46
2018-11-25T19:37:37.397Z,3.46
2018-11-25T19:40:07.766Z,3.50
2018-11-25T19:42:34.677Z,3.54
2018-11-25T19:45:01.606Z,3.62
2018-11-25T19:47:28.508Z,3.67
2018-11-25T19:49:55.423Z,3.72
2018-11-25T19:52:22.338Z,3.75
2018-11-25T19:54:49.271Z,3.79
2018-11-25T19:57:16.179Z,3.82
2018-11-25T19:59:43.099Z,3.84
2018-11-25T20:02:10.006Z,3.88
2018-11-25T20:04:36.926Z,3.92
2018-11-25T20:07:03.892Z,3.96
2018-11-25T20:09:30.805Z,4.02
2018-11-25T20:11:57.965Z,4.03
2018-11-25T20:14:25.188Z,4.05
2018-11-25T20:16:57.827Z,4.06
2018-11-25T20:19:24.737Z,4.09
2018-11-25T20:21:57.329Z,4.22
2018-11-25T20:24:24.273Z,4.28
2018-11-25T20:26:56.839Z,4.27
2018-11-25T20:29:24.469Z,4.34
2018-11-25T20:31:57.956Z,4.37
2018-11-25T20:34:25.085Z,4.34
2018-11-25T20:36:52.540Z,4.37
2018-11-25T20:39:26.412Z,4.36
2018-11-25T20:41:53.377Z,4.38
2018-11-25T20:44:20.405Z,4.39
2018-11-25T20:46:53.053Z,4.37
2018-11-25T20:49:19.978Z,4.39
2018-11-25T20:51:52.577Z,4.38
2018-11-25T20:54:19.494Z,4.40
2018-11-25T20:56:46.399Z,4.40
2018-11-25T20:59:13.310Z,4.42
2018-11-25T21:01:40.245Z,4.47
2018-11-25T21:04:07.166Z,4.48
2018-11-25T21:06:34.120Z,4.51
2018-11-25T21:09:01.053Z,4.49
2018-11-25T21:11:27.998Z,4.52
2018-11-25T21:13:54.901Z,4.50
2018-11-25T21:16:21.956Z,4.52
2018-11-25T21:18:48.869Z,4.54
2018-11-25T21:21:15.809Z,4.54
2018-11-25T21:23:42.715Z,4.57
2018-11-25T21:26:09.638Z,4.57
2018-11-25T21:28:36.545Z,4.56
2018-11-25T21:31:03.724Z,4.58
2018-11-25T21:33:30.625Z,4.58
2018-11-25T21:35:57.543Z,4.59
2018-11-25T21:38:24.445Z,4.58
2018-11-25T21:40:51.390Z,4.57
2018-11-25T21:43:18.306Z,4.59
2018-11-25T21:45:45.224Z,4.57
2018-11-25T21:48:12.133Z,4.60
2018-11-25T21:50:39.064Z,4.60
2018-11-25T21:53:05.989Z,4.61
2018-11-25T21:55:32.905Z,4.61
2018-11-25T21:57:59.817Z,4.59
2018-11-25T22:00:26.734Z,4.63
2018-11-25T22:02:53.636Z,4.60
2018-11-25T22:05:24.693Z,4.59
2018-11-25T22:07:47.536Z,4.60
2018-11-25T22:10:16.017Z,4.60
2018-11-25T22:12:43.374Z,4.56
2018-11-25T22:15:12.116Z,4.60
2018-11-25T22:17:39.174Z,4.60
2018-11-25T22:20:08.356Z,4.59
2018-11-25T22:22:35.266Z,4.58
2018-11-25T22:25:05.429Z,4.53
2018-11-25T22:27:33.404Z,4.52
2018-11-25T22:30:01.277Z,4.54
2018-11-25T22:32:29.029Z,4.56
2018-11-25T22:34:55.981Z,4.56
2018-11-25T22:37:24.036Z,4.56
2018-11-25T22:39:51.883Z,4.58
2018-11-25T22:42:18.857Z,4.56
2018-11-25T22:44:46.518Z,4.59
2018-11-25T22:47:13.740Z,4.60
2018-11-25T22:49:42.588Z,4.59
2018-11-25T22:52:09.586Z,4.58
2018-11-25T22:54:36.591Z,4.50
2018-11-25T22:57:05.751Z,4.34
2018-11-25T22:59:32.312Z,4.24
2018-11-25T23:01:59.234Z,4.21
2018-11-25T23:04:37.786Z,4.17
2018-11-25T23:07:04.797Z,4.12
2018-11-25T23:09:31.770Z,4.11
2018-11-25T23:11:59.973Z,4.13
2018-11-25T23:14:29.035Z,4.15
2018-11-25T23:16:56.093Z,4.20
2018-11-25T23:19:23.546Z,4.19
2018-11-25T23:21:54.017Z,4.19
2018-11-25T23:24:22.208Z,4.18
2018-11-25T23:26:50.684Z,4.12
2018-11-25T23:29:19.005Z,4.09
2018-11-25T23:31:47.630Z,4.11
2018-11-25T23:34:14.564Z,4.10
2018-11-25T23:36:41.570Z,4.08
2018-11-25T23:39:09.876Z,4.10
2018-11-25T23:41:37.160Z,4.08
2018-11-25T23:44:05.111Z,4.06
2018-11-25T23:46:32.325Z,3.99
2018-11-25T23:48:59.251Z,3.92
2018-11-25T23:51:28.117Z,3.82
2018-11-25T23:53:55.620Z,3.74
2018-11-25T23:56:23.677Z,3.66
2018-11-25T23:58:50.683Z,3.58
